sensor_id;sensor_type;location;lat;lon;timestamp;P1;durP1;ratioP1;P2;durP2;ratioP2
14698;SDS011;7439;50.804;4.602;2022-09-04T00:00:50;7.03;;;6.43;;
14698;SDS011;7439;50.804;4.602;2022-09-04T00:03:26;6.40;;;5.90;;
14698;SDS011;7439;50.804;4.602;2022-09-04T00:06:00;6.83;;;6.17;;
14698;SDS011;7439;50.804;4.602;2022-09-04T00:08:40;6.47;;;5.87;;
14698;SDS011;7439;50.804;4.602;2022-09-04T00:11:11;8.30;;;7.60;;
14698;SDS011;7439;50.804;4.602;2022-09-04T00:13:40;7.63;;;6.97;;
14698;SDS011;7439;50.804;4.602;2022-09-04T00:16:11;7.47;;;6.87;;
14698;SDS011;7439;50.804;4.602;2022-09-04T00:18:40;7.77;;;7.10;;
14698;SDS011;7439;50.804;4.602;2022-09-04T00:21:12;8.43;;;6.67;;
14698;SDS011;7439;50.804;4.602;2022-09-04T00:23:43;7.17;;;6.47;;
14698;SDS011;7439;50.804;4.602;2022-09-04T00:26:12;7.10;;;6.47;;
14698;SDS011;7439;50.804;4.602;2022-09-04T00:28:43;7.27;;;6.60;;
14698;SDS011;7439;50.804;4.602;2022-09-04T00:31:15;10.00;;;6.93;;
14698;SDS011;7439;50.804;4.602;2022-09-04T00:33:46;6.73;;;6.13;;
14698;SDS011;7439;50.804;4.602;2022-09-04T00:36:16;9.20;;;7.33;;
14698;SDS011;7439;50.804;4.602;2022-09-04T00:38:45;9.33;;;6.70;;
14698;SDS011;7439;50.804;4.602;2022-09-04T00:41:18;7.40;;;6.30;;
14698;SDS011;7439;50.804;4.602;2022-09-04T00:46:45;7.70;;;6.97;;
14698;SDS011;7439;50.804;4.602;2022-09-04T00:49:20;7.10;;;6.57;;
14698;SDS011;7439;50.804;4.602;2022-09-04T00:51:53;8.60;;;7.90;;
14698;SDS011;7439;50.804;4.602;2022-09-04T00:54:38;8.03;;;7.10;;
14698;SDS011;7439;50.804;4.602;2022-09-04T01:00:03;6.90;;;6.30;;
14698;SDS011;7439;50.804;4.602;2022-09-04T01:02:35;8.27;;;7.67;;
14698;SDS011;7439;50.804;4.602;2022-09-04T01:05:06;8.07;;;7.27;;
14698;SDS011;7439;50.804;4.602;2022-09-04T01:07:41;7.27;;;6.57;;
14698;SDS011;7439;50.804;4.602;2022-09-04T01:10:25;7.20;;;6.50;;
14698;SDS011;7439;50.804;4.602;2022-09-04T01:12:58;7.40;;;6.60;;
14698;SDS011;7439;50.804;4.602;2022-09-04T01:15:28;8.27;;;7.30;;
14698;SDS011;7439;50.804;4.602;2022-09-04T01:18:05;8.53;;;7.77;;
14698;SDS011;7439;50.804;4.602;2022-09-04T01:20:42;7.47;;;6.77;;
14698;SDS011;7439;50.804;4.602;2022-09-04T01:23:17;7.20;;;6.50;;
14698;SDS011;7439;50.804;4.602;2022-09-04T01:25:55;8.23;;;7.53;;
14698;SDS011;7439;50.804;4.602;2022-09-04T01:28:25;7.50;;;6.80;;
14698;SDS011;7439;50.804;4.602;2022-09-04T01:30:56;8.00;;;7.17;;
14698;SDS011;7439;50.804;4.602;2022-09-04T01:33:26;7.43;;;6.83;;
14698;SDS011;7439;50.804;4.602;2022-09-04T01:35:58;8.20;;;7.40;;
14698;SDS011;7439;50.804;4.602;2022-09-04T01:38:30;8.47;;;7.37;;
14698;SDS011;7439;50.804;4.602;2022-09-04T01:41:01;9.60;;;7.30;;
14698;SDS011;7439;50.804;4.602;2022-09-04T01:43:29;8.03;;;7.33;;
14698;SDS011;7439;50.804;4.602;2022-09-04T01:46:06;8.07;;;7.37;;
14698;SDS011;7439;50.804;4.602;2022-09-04T01:48:40;8.37;;;7.57;;
14698;SDS011;7439;50.804;4.602;2022-09-04T01:51:11;9.27;;;7.50;;
14698;SDS011;7439;50.804;4.602;2022-09-04T01:53:41;9.43;;;8.53;;
14698;SDS011;7439;50.804;4.602;2022-09-04T01:56:13;9.97;;;7.93;;
14698;SDS011;7439;50.804;4.602;2022-09-04T01:58:45;8.93;;;8.03;;
14698;SDS011;7439;50.804;4.602;2022-09-04T02:01:15;8.97;;;7.13;;
14698;SDS011;7439;50.804;4.602;2022-09-04T02:03:46;8.17;;;7.40;;
14698;SDS011;7439;50.804;4.602;2022-09-04T02:06:20;8.57;;;7.63;;
14698;SDS011;7439;50.804;4.602;2022-09-04T02:08:58;8.37;;;7.63;;
14698;SDS011;7439;50.804;4.602;2022-09-04T02:11:30;10.90;;;7.60;;
14698;SDS011;7439;50.804;4.602;2022-09-04T02:14:02;8.10;;;7.40;;
14698;SDS011;7439;50.804;4.602;2022-09-04T02:16:38;8.33;;;7.03;;
14698;SDS011;7439;50.804;4.602;2022-09-04T02:19:12;7.90;;;7.20;;
14698;SDS011;7439;50.804;4.602;2022-09-04T02:21:47;8.10;;;7.40;;
14698;SDS011;7439;50.804;4.602;2022-09-04T02:24:16;8.17;;;7.47;;
14698;SDS011;7439;50.804;4.602;2022-09-04T02:26:48;8.27;;;7.43;;
14698;SDS011;7439;50.804;4.602;2022-09-04T02:29:20;8.43;;;7.70;;
14698;SDS011;7439;50.804;4.602;2022-09-04T02:31:51;8.40;;;7.60;;
14698;SDS011;7439;50.804;4.602;2022-09-04T02:34:22;8.70;;;7.83;;
14698;SDS011;7439;50.804;4.602;2022-09-04T02:36:55;8.80;;;7.90;;
14698;SDS011;7439;50.804;4.602;2022-09-04T02:39:27;8.97;;;8.17;;
14698;SDS011;7439;50.804;4.602;2022-09-04T02:42:01;8.80;;;8.10;;
14698;SDS011;7439;50.804;4.602;2022-09-04T02:44:34;7.60;;;6.80;;
14698;SDS011;7439;50.804;4.602;2022-09-04T02:47:05;9.17;;;8.27;;
14698;SDS011;7439;50.804;4.602;2022-09-04T02:49:38;8.57;;;7.83;;
14698;SDS011;7439;50.804;4.602;2022-09-04T02:52:16;8.67;;;7.93;;
14698;SDS011;7439;50.804;4.602;2022-09-04T02:54:48;8.47;;;7.77;;
14698;SDS011;7439;50.804;4.602;2022-09-04T03:00:05;7.60;;;6.83;;
14698;SDS011;7439;50.804;4.602;2022-09-04T03:02:37;8.67;;;7.80;;
14698;SDS011;7439;50.804;4.602;2022-09-04T03:05:10;8.63;;;7.83;;
14698;SDS011;7439;50.804;4.602;2022-09-04T03:07:43;9.90;;;8.20;;
14698;SDS011;7439;50.804;4.602;2022-09-04T03:10:14;7.43;;;6.83;;
14698;SDS011;7439;50.804;4.602;2022-09-04T03:12:43;9.30;;;8.10;;
14698;SDS011;7439;50.804;4.602;2022-09-04T03:15:16;7.90;;;7.20;;
14698;SDS011;7439;50.804;4.602;2022-09-04T03:17:47;7.73;;;6.93;;
14698;SDS011;7439;50.804;4.602;2022-09-04T03:20:16;7.67;;;6.83;;
14698;SDS011;7439;50.804;4.602;2022-09-04T03:22:48;7.87;;;7.17;;
14698;SDS011;7439;50.804;4.602;2022-09-04T03:28:02;8.97;;;7.27;;
14698;SDS011;7439;50.804;4.602;2022-09-04T03:30:31;7.60;;;6.90;;
14698;SDS011;7439;50.804;4.602;2022-09-04T03:33:02;8.10;;;6.57;;
14698;SDS011;7439;50.804;4.602;2022-09-04T03:35:33;7.67;;;6.73;;
14698;SDS011;7439;50.804;4.602;2022-09-04T03:38:05;10.90;;;6.70;;
14698;SDS011;7439;50.804;4.602;2022-09-04T03:40:36;8.50;;;7.53;;
14698;SDS011;7439;50.804;4.602;2022-09-04T03:43:21;8.17;;;7.37;;
14698;SDS011;7439;50.804;4.602;2022-09-04T03:45:55;9.10;;;7.30;;
14698;SDS011;7439;50.804;4.602;2022-09-04T03:48:34;8.07;;;7.23;;
14698;SDS011;7439;50.804;4.602;2022-09-04T03:51:08;10.57;;;7.80;;
14698;SDS011;7439;50.804;4.602;2022-09-04T03:53:39;8.47;;;7.57;;
14698;SDS011;7439;50.804;4.602;2022-09-04T03:56:20;8.63;;;7.43;;
14698;SDS011;7439;50.804;4.602;2022-09-04T03:58:53;8.27;;;6.77;;
14698;SDS011;7439;50.804;4.602;2022-09-04T04:01:29;8.17;;;7.17;;
14698;SDS011;7439;50.804;4.602;2022-09-04T04:04:07;8.77;;;7.57;;
14698;SDS011;7439;50.804;4.602;2022-09-04T04:06:40;9.50;;;7.57;;
14698;SDS011;7439;50.804;4.602;2022-09-04T04:09:14;12.13;;;9.23;;
14698;SDS011;7439;50.804;4.602;2022-09-04T04:11:49;9.93;;;8.60;;
14698;SDS011;7439;50.804;4.602;2022-09-04T04:14:24;13.90;;;9.83;;
14698;SDS011;7439;50.804;4.602;2022-09-04T04:16:59;10.00;;;8.53;;
14698;SDS011;7439;50.804;4.602;2022-09-04T04:19:35;8.67;;;7.87;;
14698;SDS011;7439;50.804;4.602;2022-09-04T04:22:27;9.93;;;8.83;;
14698;SDS011;7439;50.804;4.602;2022-09-04T04:25:05;10.10;;;8.23;;
14698;SDS011;7439;50.804;4.602;2022-09-04T04:27:49;9.23;;;8.33;;
14698;SDS011;7439;50.804;4.602;2022-09-04T04:30:17;12.53;;;8.60;;
14698;SDS011;7439;50.804;4.602;2022-09-04T04:32:51;10.90;;;9.47;;
14698;SDS011;7439;50.804;4.602;2022-09-04T04:35:28;10.17;;;8.30;;
14698;SDS011;7439;50.804;4.602;2022-09-04T04:38:16;11.77;;;8.47;;
14698;SDS011;7439;50.804;4.602;2022-09-04T04:40:54;10.43;;;9.27;;
14698;SDS011;7439;50.804;4.602;2022-09-04T04:43:28;13.53;;;9.60;;
14698;SDS011;7439;50.804;4.602;2022-09-04T04:45:59;10.17;;;8.53;;
14698;SDS011;7439;50.804;4.602;2022-09-04T04:51:23;9.47;;;8.43;;
14698;SDS011;7439;50.804;4.602;2022-09-04T04:53:57;9.70;;;8.73;;
14698;SDS011;7439;50.804;4.602;2022-09-04T04:56:28;9.67;;;8.50;;
14698;SDS011;7439;50.804;4.602;2022-09-04T04:59:00;13.77;;;8.90;;
14698;SDS011;7439;50.804;4.602;2022-09-04T05:01:35;10.60;;;9.47;;
14698;SDS011;7439;50.804;4.602;2022-09-04T05:04:08;10.67;;;8.43;;
14698;SDS011;7439;50.804;4.602;2022-09-04T05:06:42;9.97;;;8.97;;
14698;SDS011;7439;50.804;4.602;2022-09-04T05:09:15;8.63;;;7.73;;
14698;SDS011;7439;50.804;4.602;2022-09-04T05:11:49;15.23;;;8.40;;
14698;SDS011;7439;50.804;4.602;2022-09-04T05:14:23;10.10;;;8.70;;
14698;SDS011;7439;50.804;4.602;2022-09-04T05:16:53;10.00;;;9.00;;
14698;SDS011;7439;50.804;4.602;2022-09-04T05:19:23;9.97;;;8.53;;
14698;SDS011;7439;50.804;4.602;2022-09-04T05:21:54;10.77;;;9.67;;
14698;SDS011;7439;50.804;4.602;2022-09-04T05:24:27;10.67;;;9.13;;
14698;SDS011;7439;50.804;4.602;2022-09-04T05:26:59;12.30;;;9.20;;
14698;SDS011;7439;50.804;4.602;2022-09-04T05:29:33;10.57;;;8.93;;
14698;SDS011;7439;50.804;4.602;2022-09-04T05:32:06;14.07;;;9.70;;
14698;SDS011;7439;50.804;4.602;2022-09-04T05:34:47;12.70;;;10.00;;
14698;SDS011;7439;50.804;4.602;2022-09-04T05:37:20;14.43;;;10.03;;
14698;SDS011;7439;50.804;4.602;2022-09-04T05:39:53;13.77;;;9.90;;
14698;SDS011;7439;50.804;4.602;2022-09-04T05:45:06;16.60;;;10.47;;
14698;SDS011;7439;50.804;4.602;2022-09-04T05:47:41;13.27;;;10.23;;
14698;SDS011;7439;50.804;4.602;2022-09-04T05:52:59;12.07;;;9.93;;
14698;SDS011;7439;50.804;4.602;2022-09-04T05:55:36;10.90;;;9.80;;
14698;SDS011;7439;50.804;4.602;2022-09-04T05:58:15;13.80;;;10.17;;
14698;SDS011;7439;50.804;4.602;2022-09-04T06:00:45;13.50;;;10.47;;
14698;SDS011;7439;50.804;4.602;2022-09-04T06:06:02;15.83;;;11.50;;
14698;SDS011;7439;50.804;4.602;2022-09-04T06:08:45;12.80;;;10.03;;
14698;SDS011;7439;50.804;4.602;2022-09-04T06:14:08;13.77;;;10.47;;
14698;SDS011;7439;50.804;4.602;2022-09-04T06:16:46;14.63;;;10.17;;
14698;SDS011;7439;50.804;4.602;2022-09-04T06:22:04;15.00;;;10.73;;
14698;SDS011;7439;50.804;4.602;2022-09-04T06:24:44;15.63;;;10.80;;
14698;SDS011;7439;50.804;4.602;2022-09-04T06:27:20;14.63;;;11.03;;
14698;SDS011;7439;50.804;4.602;2022-09-04T06:29:59;13.90;;;10.20;;
14698;SDS011;7439;50.804;4.602;2022-09-04T06:35:15;11.07;;;9.40;;
14698;SDS011;7439;50.804;4.602;2022-09-04T06:37:45;16.00;;;9.37;;
14698;SDS011;7439;50.804;4.602;2022-09-04T06:40:22;11.53;;;8.20;;
14698;SDS011;7439;50.804;4.602;2022-09-04T06:42:57;12.23;;;8.50;;
14698;SDS011;7439;50.804;4.602;2022-09-04T06:45:29;12.57;;;8.77;;
14698;SDS011;7439;50.804;4.602;2022-09-04T06:48:03;9.27;;;7.40;;
14698;SDS011;7439;50.804;4.602;2022-09-04T06:50:35;11.53;;;7.80;;
14698;SDS011;7439;50.804;4.602;2022-09-04T06:53:16;9.83;;;6.80;;
14698;SDS011;7439;50.804;4.602;2022-09-04T06:55:48;11.33;;;8.13;;
14698;SDS011;7439;50.804;4.602;2022-09-04T06:58:25;12.03;;;7.27;;
14698;SDS011;7439;50.804;4.602;2022-09-04T07:00:56;11.43;;;7.30;;
14698;SDS011;7439;50.804;4.602;2022-09-04T07:03:29;7.47;;;6.57;;
14698;SDS011;7439;50.804;4.602;2022-09-04T07:06:02;8.67;;;7.07;;
14698;SDS011;7439;50.804;4.602;2022-09-04T07:08:35;11.43;;;7.40;;
14698;SDS011;7439;50.804;4.602;2022-09-04T07:11:11;11.93;;;6.80;;
14698;SDS011;7439;50.804;4.602;2022-09-04T07:16:33;7.57;;;6.77;;
14698;SDS011;7439;50.804;4.602;2022-09-04T07:19:15;8.53;;;6.77;;
14698;SDS011;7439;50.804;4.602;2022-09-04T07:21:53;7.03;;;5.37;;
14698;SDS011;7439;50.804;4.602;2022-09-04T07:24:38;6.10;;;5.17;;
14698;SDS011;7439;50.804;4.602;2022-09-04T07:27:10;8.27;;;5.10;;
14698;SDS011;7439;50.804;4.602;2022-09-04T07:29:43;6.27;;;5.67;;
14698;SDS011;7439;50.804;4.602;2022-09-04T07:32:12;7.03;;;5.30;;
14698;SDS011;7439;50.804;4.602;2022-09-04T07:34:45;6.20;;;5.50;;
14698;SDS011;7439;50.804;4.602;2022-09-04T07:37:18;8.67;;;5.40;;
14698;SDS011;7439;50.804;4.602;2022-09-04T07:39:52;9.27;;;4.97;;
14698;SDS011;7439;50.804;4.602;2022-09-04T07:42:24;8.27;;;4.27;;
14698;SDS011;7439;50.804;4.602;2022-09-04T07:44:56;5.70;;;4.70;;
14698;SDS011;7439;50.804;4.602;2022-09-04T07:47:27;5.57;;;4.37;;
14698;SDS011;7439;50.804;4.602;2022-09-04T07:49:59;4.40;;;4.00;;
14698;SDS011;7439;50.804;4.602;2022-09-04T07:52:33;7.30;;;4.40;;
14698;SDS011;7439;50.804;4.602;2022-09-04T07:55:10;4.73;;;4.23;;
14698;SDS011;7439;50.804;4.602;2022-09-04T07:57:45;5.30;;;3.90;;
14698;SDS011;7439;50.804;4.602;2022-09-04T08:00:18;6.83;;;4.37;;
14698;SDS011;7439;50.804;4.602;2022-09-04T08:02:55;4.67;;;3.83;;
14698;SDS011;7439;50.804;4.602;2022-09-04T08:05:26;7.33;;;4.10;;
14698;SDS011;7439;50.804;4.602;2022-09-04T08:10:43;6.13;;;4.63;;
14698;SDS011;7439;50.804;4.602;2022-09-04T08:13:18;4.50;;;3.50;;
14698;SDS011;7439;50.804;4.602;2022-09-04T08:15:49;5.47;;;3.70;;
14698;SDS011;7439;50.804;4.602;2022-09-04T08:18:24;4.73;;;3.60;;
14698;SDS011;7439;50.804;4.602;2022-09-04T08:20:54;4.43;;;3.80;;
14698;SDS011;7439;50.804;4.602;2022-09-04T08:23:33;4.60;;;3.43;;
14698;SDS011;7439;50.804;4.602;2022-09-04T08:26:08;3.97;;;3.60;;
14698;SDS011;7439;50.804;4.602;2022-09-04T08:28:52;3.40;;;3.10;;
14698;SDS011;7439;50.804;4.602;2022-09-04T08:31:28;3.67;;;3.20;;
14698;SDS011;7439;50.804;4.602;2022-09-04T08:34:06;4.13;;;3.50;;
14698;SDS011;7439;50.804;4.602;2022-09-04T08:36:40;4.20;;;3.10;;
14698;SDS011;7439;50.804;4.602;2022-09-04T08:39:09;3.40;;;3.10;;
14698;SDS011;7439;50.804;4.602;2022-09-04T08:44:35;3.27;;;2.90;;
14698;SDS011;7439;50.804;4.602;2022-09-04T08:47:16;3.40;;;2.70;;
14698;SDS011;7439;50.804;4.602;2022-09-04T08:55:35;2.77;;;2.57;;
14698;SDS011;7439;50.804;4.602;2022-09-04T09:01:03;3.13;;;2.70;;
14698;SDS011;7439;50.804;4.602;2022-09-04T09:03:42;4.70;;;2.30;;
14698;SDS011;7439;50.804;4.602;2022-09-04T09:06:20;2.33;;;2.13;;
14698;SDS011;7439;50.804;4.602;2022-09-04T09:08:59;4.80;;;2.83;;
14698;SDS011;7439;50.804;4.602;2022-09-04T09:14:21;4.40;;;2.20;;
14698;SDS011;7439;50.804;4.602;2022-09-04T09:17:00;3.97;;;2.37;;
14698;SDS011;7439;50.804;4.602;2022-09-04T09:19:40;4.07;;;2.40;;
14698;SDS011;7439;50.804;4.602;2022-09-04T09:22:09;5.17;;;2.40;;
14698;SDS011;7439;50.804;4.602;2022-09-04T09:24:51;4.30;;;1.93;;
14698;SDS011;7439;50.804;4.602;2022-09-04T09:30:03;4.17;;;2.23;;
14698;SDS011;7439;50.804;4.602;2022-09-04T09:32:54;6.30;;;2.50;;
14698;SDS011;7439;50.804;4.602;2022-09-04T09:35:46;3.07;;;2.37;;
14698;SDS011;7439;50.804;4.602;2022-09-04T09:38:34;4.30;;;2.30;;
14698;SDS011;7439;50.804;4.602;2022-09-04T09:41:20;4.27;;;2.30;;
14698;SDS011;7439;50.804;4.602;2022-09-04T09:44:07;2.77;;;2.43;;
14698;SDS011;7439;50.804;4.602;2022-09-04T09:46:49;3.50;;;2.20;;
14698;SDS011;7439;50.804;4.602;2022-09-04T09:49:34;4.63;;;2.43;;
14698;SDS011;7439;50.804;4.602;2022-09-04T09:52:20;2.90;;;2.20;;
14698;SDS011;7439;50.804;4.602;2022-09-04T09:57:45;5.87;;;1.73;;
14698;SDS011;7439;50.804;4.602;2022-09-04T10:00:18;1.77;;;1.67;;
14698;SDS011;7439;50.804;4.602;2022-09-04T10:05:46;2.07;;;1.90;;
14698;SDS011;7439;50.804;4.602;2022-09-04T10:08:20;3.30;;;1.77;;
14698;SDS011;7439;50.804;4.602;2022-09-04T10:11:01;3.50;;;1.93;;
14698;SDS011;7439;50.804;4.602;2022-09-04T10:13:37;2.87;;;1.77;;
14698;SDS011;7439;50.804;4.602;2022-09-04T10:27:39;2.80;;;1.60;;
14698;SDS011;7439;50.804;4.602;2022-09-04T10:30:09;2.30;;;1.77;;
14698;SDS011;7439;50.804;4.602;2022-09-04T10:35:29;4.83;;;1.67;;
14698;SDS011;7439;50.804;4.602;2022-09-04T10:38:08;1.43;;;1.33;;
14698;SDS011;7439;50.804;4.602;2022-09-04T10:40:43;1.70;;;1.50;;
14698;SDS011;7439;50.804;4.602;2022-09-04T10:43:22;1.80;;;1.63;;
14698;SDS011;7439;50.804;4.602;2022-09-04T10:45:57;2.23;;;1.60;;
14698;SDS011;7439;50.804;4.602;2022-09-04T10:51:13;3.00;;;1.60;;
14698;SDS011;7439;50.804;4.602;2022-09-04T10:53:50;2.10;;;1.70;;
14698;SDS011;7439;50.804;4.602;2022-09-04T10:56:31;2.03;;;1.50;;
14698;SDS011;7439;50.804;4.602;2022-09-04T10:59:13;2.73;;;1.30;;
14698;SDS011;7439;50.804;4.602;2022-09-04T11:01:56;1.87;;;1.57;;
14698;SDS011;7439;50.804;4.602;2022-09-04T11:04:35;1.97;;;1.40;;
14698;SDS011;7439;50.804;4.602;2022-09-04T11:10:01;1.50;;;1.40;;
14698;SDS011;7439;50.804;4.602;2022-09-04T11:12:32;2.27;;;1.60;;
14698;SDS011;7439;50.804;4.602;2022-09-04T11:15:16;2.10;;;1.57;;
14698;SDS011;7439;50.804;4.602;2022-09-04T11:17:58;2.73;;;1.73;;
14698;SDS011;7439;50.804;4.602;2022-09-04T11:20:36;2.50;;;1.67;;
14698;SDS011;7439;50.804;4.602;2022-09-04T11:23:28;2.27;;;1.50;;
14698;SDS011;7439;50.804;4.602;2022-09-04T11:26:17;3.60;;;2.03;;
14698;SDS011;7439;50.804;4.602;2022-09-04T11:28:57;2.33;;;1.60;;
14698;SDS011;7439;50.804;4.602;2022-09-04T11:31:47;2.83;;;1.80;;
14698;SDS011;7439;50.804;4.602;2022-09-04T11:37:12;4.07;;;1.77;;
14698;SDS011;7439;50.804;4.602;2022-09-04T11:39:53;2.23;;;1.70;;
14698;SDS011;7439;50.804;4.602;2022-09-04T11:42:28;2.80;;;1.80;;
14698;SDS011;7439;50.804;4.602;2022-09-04T11:50:41;1.83;;;1.73;;
14698;SDS011;7439;50.804;4.602;2022-09-04T11:53:25;1.93;;;1.57;;
14698;SDS011;7439;50.804;4.602;2022-09-04T11:56:03;3.33;;;1.70;;
14698;SDS011;7439;50.804;4.602;2022-09-04T11:58:40;2.33;;;1.40;;
14698;SDS011;7439;50.804;4.602;2022-09-04T12:01:19;3.63;;;2.00;;
14698;SDS011;7439;50.804;4.602;2022-09-04T12:03:56;1.87;;;1.57;;
14698;SDS011;7439;50.804;4.602;2022-09-04T12:06:36;2.30;;;1.87;;
14698;SDS011;7439;50.804;4.602;2022-09-04T12:14:48;3.33;;;1.80;;
14698;SDS011;7439;50.804;4.602;2022-09-04T12:17:22;2.73;;;1.40;;
14698;SDS011;7439;50.804;4.602;2022-09-04T12:31:14;2.23;;;1.60;;
14698;SDS011;7439;50.804;4.602;2022-09-04T12:33:49;2.00;;;1.80;;
14698;SDS011;7439;50.804;4.602;2022-09-04T12:41:54;1.90;;;1.70;;
14698;SDS011;7439;50.804;4.602;2022-09-04T12:44:25;1.90;;;1.60;;
14698;SDS011;7439;50.804;4.602;2022-09-04T12:47:06;3.23;;;1.73;;
14698;SDS011;7439;50.804;4.602;2022-09-04T12:49:41;5.00;;;1.83;;
14698;SDS011;7439;50.804;4.602;2022-09-04T12:52:15;2.60;;;1.80;;
14698;SDS011;7439;50.804;4.602;2022-09-04T12:54:50;2.47;;;1.97;;
14698;SDS011;7439;50.804;4.602;2022-09-04T12:57:27;3.50;;;1.80;;
14698;SDS011;7439;50.804;4.602;2022-09-04T13:00:00;3.20;;;1.50;;
14698;SDS011;7439;50.804;4.602;2022-09-04T13:02:33;3.50;;;1.60;;
14698;SDS011;7439;50.804;4.602;2022-09-04T13:05:14;3.23;;;1.60;;
14698;SDS011;7439;50.804;4.602;2022-09-04T13:07:47;4.27;;;1.97;;
14698;SDS011;7439;50.804;4.602;2022-09-04T13:10:20;4.30;;;1.73;;
14698;SDS011;7439;50.804;4.602;2022-09-04T13:12:53;4.47;;;1.90;;
14698;SDS011;7439;50.804;4.602;2022-09-04T13:15:25;4.23;;;1.93;;
14698;SDS011;7439;50.804;4.602;2022-09-04T13:18:00;5.13;;;2.07;;
14698;SDS011;7439;50.804;4.602;2022-09-04T13:20:33;2.37;;;1.97;;
14698;SDS011;7439;50.804;4.602;2022-09-04T13:23:11;3.07;;;1.57;;
14698;SDS011;7439;50.804;4.602;2022-09-04T13:25:46;4.10;;;1.83;;
14698;SDS011;7439;50.804;4.602;2022-09-04T13:28:19;3.60;;;1.53;;
14698;SDS011;7439;50.804;4.602;2022-09-04T13:30:51;4.93;;;1.80;;
14698;SDS011;7439;50.804;4.602;2022-09-04T13:33:28;1.60;;;1.50;;
14698;SDS011;7439;50.804;4.602;2022-09-04T13:36:08;3.33;;;1.80;;
14698;SDS011;7439;50.804;4.602;2022-09-04T13:38:48;2.23;;;1.70;;
14698;SDS011;7439;50.804;4.602;2022-09-04T13:41:30;3.67;;;1.70;;
14698;SDS011;7439;50.804;4.602;2022-09-04T13:44:14;1.73;;;1.60;;
14698;SDS011;7439;50.804;4.602;2022-09-04T13:46:49;4.80;;;1.73;;
14698;SDS011;7439;50.804;4.602;2022-09-04T13:49:20;2.17;;;1.60;;
14698;SDS011;7439;50.804;4.602;2022-09-04T13:51:54;3.43;;;1.63;;
14698;SDS011;7439;50.804;4.602;2022-09-04T13:54:24;2.90;;;1.70;;
14698;SDS011;7439;50.804;4.602;2022-09-04T13:56:55;2.13;;;1.40;;
14698;SDS011;7439;50.804;4.602;2022-09-04T13:59:23;2.03;;;1.50;;
14698;SDS011;7439;50.804;4.602;2022-09-04T14:01:52;1.67;;;1.57;;
14698;SDS011;7439;50.804;4.602;2022-09-04T14:04:23;1.43;;;1.33;;
14698;SDS011;7439;50.804;4.602;2022-09-04T14:06:54;2.17;;;1.60;;
14698;SDS011;7439;50.804;4.602;2022-09-04T14:09:23;2.80;;;1.87;;
14698;SDS011;7439;50.804;4.602;2022-09-04T14:11:59;2.00;;;1.50;;
14698;SDS011;7439;50.804;4.602;2022-09-04T14:14:40;3.80;;;1.23;;
14698;SDS011;7439;50.804;4.602;2022-09-04T14:17:14;1.50;;;1.40;;
14698;SDS011;7439;50.804;4.602;2022-09-04T14:19:53;2.80;;;1.67;;
14698;SDS011;7439;50.804;4.602;2022-09-04T14:22:32;4.63;;;1.80;;
14698;SDS011;7439;50.804;4.602;2022-09-04T14:25:06;2.53;;;1.73;;
14698;SDS011;7439;50.804;4.602;2022-09-04T14:27:37;2.20;;;1.67;;
14698;SDS011;7439;50.804;4.602;2022-09-04T14:30:08;2.07;;;1.63;;
14698;SDS011;7439;50.804;4.602;2022-09-04T14:32:42;2.87;;;1.60;;
14698;SDS011;7439;50.804;4.602;2022-09-04T14:35:15;2.20;;;1.47;;
14698;SDS011;7439;50.804;4.602;2022-09-04T14:37:56;2.57;;;1.40;;
14698;SDS011;7439;50.804;4.602;2022-09-04T14:40:26;2.30;;;1.50;;
14698;SDS011;7439;50.804;4.602;2022-09-04T14:42:58;1.60;;;1.30;;
14698;SDS011;7439;50.804;4.602;2022-09-04T14:45:29;3.37;;;1.80;;
14698;SDS011;7439;50.804;4.602;2022-09-04T14:48:00;2.63;;;1.50;;
14698;SDS011;7439;50.804;4.602;2022-09-04T14:50:31;7.53;;;1.60;;
14698;SDS011;7439;50.804;4.602;2022-09-04T14:53:00;2.17;;;1.80;;
14698;SDS011;7439;50.804;4.602;2022-09-04T14:55:29;6.47;;;1.80;;
14698;SDS011;7439;50.804;4.602;2022-09-04T14:57:58;1.60;;;1.30;;
14698;SDS011;7439;50.804;4.602;2022-09-04T15:00:29;1.63;;;1.40;;
14698;SDS011;7439;50.804;4.602;2022-09-04T15:03:00;1.60;;;1.50;;
14698;SDS011;7439;50.804;4.602;2022-09-04T15:05:33;3.47;;;1.70;;
14698;SDS011;7439;50.804;4.602;2022-09-04T15:08:04;1.77;;;1.67;;
14698;SDS011;7439;50.804;4.602;2022-09-04T15:10:33;1.53;;;1.43;;
14698;SDS011;7439;50.804;4.602;2022-09-04T15:15:48;4.90;;;1.90;;
14698;SDS011;7439;50.804;4.602;2022-09-04T15:18:19;2.03;;;1.70;;
14698;SDS011;7439;50.804;4.602;2022-09-04T15:20:50;3.97;;;1.50;;
14698;SDS011;7439;50.804;4.602;2022-09-04T15:23:23;1.70;;;1.57;;
14698;SDS011;7439;50.804;4.602;2022-09-04T15:25:53;2.80;;;2.00;;
14698;SDS011;7439;50.804;4.602;2022-09-04T15:28:23;2.23;;;1.63;;
14698;SDS011;7439;50.804;4.602;2022-09-04T15:31:00;2.40;;;1.70;;
14698;SDS011;7439;50.804;4.602;2022-09-04T15:33:28;1.80;;;1.60;;
14698;SDS011;7439;50.804;4.602;2022-09-04T15:36:00;2.77;;;1.47;;
14698;SDS011;7439;50.804;4.602;2022-09-04T15:38:29;1.57;;;1.47;;
14698;SDS011;7439;50.804;4.602;2022-09-04T15:40:58;2.07;;;1.87;;
14698;SDS011;7439;50.804;4.602;2022-09-04T15:43:30;1.47;;;1.37;;
14698;SDS011;7439;50.804;4.602;2022-09-04T15:46:00;2.30;;;1.70;;
14698;SDS011;7439;50.804;4.602;2022-09-04T15:48:34;3.67;;;1.57;;
14698;SDS011;7439;50.804;4.602;2022-09-04T15:51:15;2.43;;;1.57;;
14698;SDS011;7439;50.804;4.602;2022-09-04T15:53:46;3.57;;;1.63;;
14698;SDS011;7439;50.804;4.602;2022-09-04T15:56:29;2.50;;;1.50;;
14698;SDS011;7439;50.804;4.602;2022-09-04T15:59:00;1.73;;;1.50;;
14698;SDS011;7439;50.804;4.602;2022-09-04T16:01:31;2.67;;;1.40;;
14698;SDS011;7439;50.804;4.602;2022-09-04T16:04:04;2.63;;;1.80;;
14698;SDS011;7439;50.804;4.602;2022-09-04T16:06:43;3.07;;;1.70;;
14698;SDS011;7439;50.804;4.602;2022-09-04T16:09:16;3.77;;;1.73;;
14698;SDS011;7439;50.804;4.602;2022-09-04T16:11:45;1.50;;;1.20;;
14698;SDS011;7439;50.804;4.602;2022-09-04T16:14:17;3.20;;;1.70;;
14698;SDS011;7439;50.804;4.602;2022-09-04T16:16:47;2.23;;;1.50;;
14698;SDS011;7439;50.804;4.602;2022-09-04T16:19:20;2.63;;;1.60;;
14698;SDS011;7439;50.804;4.602;2022-09-04T16:21:51;2.00;;;1.40;;
14698;SDS011;7439;50.804;4.602;2022-09-04T16:24:22;2.13;;;1.43;;
14698;SDS011;7439;50.804;4.602;2022-09-04T16:26:53;3.53;;;1.90;;
14698;SDS011;7439;50.804;4.602;2022-09-04T16:29:26;2.10;;;1.50;;
14698;SDS011;7439;50.804;4.602;2022-09-04T16:31:55;1.80;;;1.53;;
14698;SDS011;7439;50.804;4.602;2022-09-04T16:34:24;1.43;;;1.33;;
14698;SDS011;7439;50.804;4.602;2022-09-04T16:36:53;1.70;;;1.60;;
14698;SDS011;7439;50.804;4.602;2022-09-04T16:39:27;3.53;;;1.80;;
14698;SDS011;7439;50.804;4.602;2022-09-04T16:41:57;2.13;;;1.53;;
14698;SDS011;7439;50.804;4.602;2022-09-04T16:44:26;2.77;;;1.60;;
14698;SDS011;7439;50.804;4.602;2022-09-04T16:46:56;2.20;;;1.47;;
14698;SDS011;7439;50.804;4.602;2022-09-04T16:49:35;3.13;;;1.67;;
14698;SDS011;7439;50.804;4.602;2022-09-04T16:52:21;20.43;;;2.93;;
14698;SDS011;7439;50.804;4.602;2022-09-04T16:54:52;1.87;;;1.40;;
14698;SDS011;7439;50.804;4.602;2022-09-04T16:57:23;1.73;;;1.63;;
14698;SDS011;7439;50.804;4.602;2022-09-04T16:59:52;3.70;;;1.60;;
14698;SDS011;7439;50.804;4.602;2022-09-04T17:02:23;2.53;;;1.40;;
14698;SDS011;7439;50.804;4.602;2022-09-04T17:04:53;1.93;;;1.50;;
14698;SDS011;7439;50.804;4.602;2022-09-04T17:07:26;3.43;;;1.80;;
14698;SDS011;7439;50.804;4.602;2022-09-04T17:09:58;3.40;;;1.90;;
14698;SDS011;7439;50.804;4.602;2022-09-04T17:12:30;2.40;;;1.63;;
14698;SDS011;7439;50.804;4.602;2022-09-04T17:15:05;4.20;;;1.60;;
14698;SDS011;7439;50.804;4.602;2022-09-04T17:17:34;2.53;;;1.60;;
14698;SDS011;7439;50.804;4.602;2022-09-04T17:20:07;1.50;;;1.30;;
14698;SDS011;7439;50.804;4.602;2022-09-04T17:22:39;2.00;;;1.60;;
14698;SDS011;7439;50.804;4.602;2022-09-04T17:25:11;1.90;;;1.67;;
14698;SDS011;7439;50.804;4.602;2022-09-04T17:27:42;1.80;;;1.70;;
14698;SDS011;7439;50.804;4.602;2022-09-04T17:30:12;3.07;;;1.90;;
14698;SDS011;7439;50.804;4.602;2022-09-04T17:32:44;4.43;;;1.60;;